sensor_id;sensor_type;location;lat;lon;timestamp;P1;durP1;ratioP1;P2;durP2;ratioP2
7475;SDS011;3779;49.216;8.650;2023-12-20T01:02:29;2.73;;;2.53;;
7475;SDS011;3779;49.216;8.650;2023-12-20T01:05:15;3.50;;;3.20;;
7475;SDS011;3779;49.216;8.650;2023-12-20T01:08:01;4.43;;;3.50;;
7475;SDS011;3779;49.216;8.650;2023-12-20T01:10:48;4.00;;;3.70;;
7475;SDS011;3779;49.216;8.650;2023-12-20T01:13:33;2.40;;;2.20;;
7475;SDS011;3779;49.216;8.650;2023-12-20T01:16:20;2.67;;;2.47;;
7475;SDS011;3779;49.216;8.650;2023-12-20T01:19:06;2.20;;;1.90;;
7475;SDS011;3779;49.216;8.650;2023-12-20T01:21:52;3.37;;;3.07;;
7475;SDS011;3779;49.216;8.650;2023-12-20T01:24:37;2.30;;;1.80;;
7475;SDS011;3779;49.216;8.650;2023-12-20T01:27:23;2.13;;;1.90;;
7475;SDS011;3779;49.216;8.650;2023-12-20T01:30:09;3.73;;;3.40;;
7475;SDS011;3779;49.216;8.650;2023-12-20T01:32:55;2.60;;;2.40;;
7475;SDS011;3779;49.216;8.650;2023-12-20T01:35:41;1.80;;;1.70;;
7475;SDS011;3779;49.216;8.650;2023-12-20T01:38:26;2.40;;;2.20;;
7475;SDS011;3779;49.216;8.650;2023-12-20T01:41:12;2.67;;;2.47;;
7475;SDS011;3779;49.216;8.650;2023-12-20T01:43:58;2.40;;;2.20;;
7475;SDS011;3779;49.216;8.650;2023-12-20T01:46:44;1.80;;;1.70;;
7475;SDS011;3779;49.216;8.650;2023-12-20T01:52:31;2.20;;;2.00;;
7475;SDS011;3779;49.216;8.650;2023-12-20T01:55:19;2.30;;;2.10;;
7475;SDS011;3779;49.216;8.650;2023-12-20T01:58:06;2.27;;;2.07;;
7475;SDS011;3779;49.216;8.650;2023-12-20T02:00:53;1.70;;;1.60;;
7475;SDS011;3779;49.216;8.650;2023-12-20T02:09:53;1.70;;;1.60;;
7475;SDS011;3779;49.216;8.650;2023-12-20T02:12:40;1.77;;;1.67;;
7475;SDS011;3779;49.216;8.650;2023-12-20T02:15:25;2.23;;;2.03;;
7475;SDS011;3779;49.216;8.650;2023-12-20T02:18:11;1.73;;;1.63;;
7475;SDS011;3779;49.216;8.650;2023-12-20T02:21:03;1.87;;;1.70;;
7475;SDS011;3779;49.216;8.650;2023-12-20T02:23:59;1.70;;;1.60;;
7475;SDS011;3779;49.216;8.650;2023-12-20T02:26:45;1.50;;;1.40;;
7475;SDS011;3779;49.216;8.650;2023-12-20T02:29:32;1.43;;;1.33;;
7475;SDS011;3779;49.216;8.650;2023-12-20T02:32:18;1.83;;;1.73;;
7475;SDS011;3779;49.216;8.650;2023-12-20T02:35:05;2.00;;;1.90;;
7475;SDS011;3779;49.216;8.650;2023-12-20T02:37:51;1.63;;;1.47;;
7475;SDS011;3779;49.216;8.650;2023-12-20T02:40:37;1.83;;;1.57;;
7475;SDS011;3779;49.216;8.650;2023-12-20T02:58:18;1.40;;;1.30;;
7475;SDS011;3779;49.216;8.650;2023-12-20T03:01:04;1.60;;;1.50;;
7475;SDS011;3779;49.216;8.650;2023-12-20T03:03:50;1.70;;;1.60;;
7475;SDS011;3779;49.216;8.650;2023-12-20T03:06:37;1.70;;;1.60;;
7475;SDS011;3779;49.216;8.650;2023-12-20T03:09:23;1.97;;;1.77;;
7475;SDS011;3779;49.216;8.650;2023-12-20T03:12:09;2.20;;;2.00;;
7475;SDS011;3779;49.216;8.650;2023-12-20T03:14:55;2.70;;;2.20;;
7475;SDS011;3779;49.216;8.650;2023-12-20T03:17:41;2.00;;;1.90;;
7475;SDS011;3779;49.216;8.650;2023-12-20T03:20:26;2.20;;;1.90;;
7475;SDS011;3779;49.216;8.650;2023-12-20T03:23:16;1.33;;;1.23;;
7475;SDS011;3779;49.216;8.650;2023-12-20T03:26:01;1.93;;;1.80;;
7475;SDS011;3779;49.216;8.650;2023-12-20T03:32:04;1.63;;;1.53;;
7475;SDS011;3779;49.216;8.650;2023-12-20T03:34:50;1.90;;;1.80;;
7475;SDS011;3779;49.216;8.650;2023-12-20T03:37:39;1.47;;;1.37;;
7475;SDS011;3779;49.216;8.650;2023-12-20T03:40:24;1.40;;;1.30;;
7475;SDS011;3779;49.216;8.650;2023-12-20T06:45:24;1.07;;;1.07;;
7475;SDS011;3779;49.216;8.650;2023-12-20T07:03:20;1.33;;;1.23;;
7475;SDS011;3779;49.216;8.650;2023-12-20T07:21:43;1.37;;;1.27;;
7475;SDS011;3779;49.216;8.650;2023-12-20T08:05:38;1.40;;;1.30;;
7475;SDS011;3779;49.216;8.650;2023-12-20T08:08:27;1.03;;;0.90;;
7475;SDS011;3779;49.216;8.650;2023-12-20T08:11:13;1.10;;;1.10;;
7475;SDS011;3779;49.216;8.650;2023-12-20T08:13:59;2.33;;;1.40;;
7475;SDS011;3779;49.216;8.650;2023-12-20T08:16:45;1.00;;;0.90;;
7475;SDS011;3779;49.216;8.650;2023-12-20T08:19:31;1.20;;;0.97;;
7475;SDS011;3779;49.216;8.650;2023-12-20T08:22:17;0.90;;;0.90;;
7475;SDS011;3779;49.216;8.650;2023-12-20T08:25:02;1.17;;;1.07;;
7475;SDS011;3779;49.216;8.650;2023-12-20T08:27:49;1.80;;;1.30;;
7475;SDS011;3779;49.216;8.650;2023-12-20T08:48:52;4.87;;;1.80;;
7475;SDS011;3779;49.216;8.650;2023-12-20T08:51:47;0.93;;;0.93;;
7475;SDS011;3779;49.216;8.650;2023-12-20T08:57:49;2.00;;;1.30;;
7475;SDS011;3779;49.216;8.650;2023-12-20T09:00:35;2.43;;;1.10;;
7475;SDS011;3779;49.216;8.650;2023-12-20T09:21:54;1.00;;;1.00;;
7475;SDS011;3779;49.216;8.650;2023-12-20T09:27:42;1.17;;;1.10;;
7475;SDS011;3779;49.216;8.650;2023-12-20T09:30:28;1.03;;;0.90;;
7475;SDS011;3779;49.216;8.650;2023-12-20T10:44:05;3.33;;;1.70;;
7475;SDS011;3779;49.216;8.650;2023-12-20T10:52:47;2.70;;;1.40;;
7475;SDS011;3779;49.216;8.650;2023-12-20T11:04:46;3.30;;;1.20;;
7475;SDS011;3779;49.216;8.650;2023-12-20T11:28:37;5.10;;;0.97;;
7475;SDS011;3779;49.216;8.650;2023-12-20T11:37:11;4.30;;;1.43;;
7475;SDS011;3779;49.216;8.650;2023-12-20T11:40:06;2.70;;;1.17;;
7475;SDS011;3779;49.216;8.650;2023-12-20T11:42:54;0.90;;;0.83;;
7475;SDS011;3779;49.216;8.650;2023-12-20T11:45:48;3.03;;;1.50;;
7475;SDS011;3779;49.216;8.650;2023-12-20T11:48:37;1.67;;;1.40;;
7475;SDS011;3779;49.216;8.650;2023-12-20T11:51:24;3.20;;;1.43;;
7475;SDS011;3779;49.216;8.650;2023-12-20T11:56:59;2.85;;;1.45;;
7475;SDS011;3779;49.216;8.650;2023-12-20T11:59:46;4.75;;;1.83;;
7475;SDS011;3779;49.216;8.650;2023-12-20T12:02:32;3.75;;;1.40;;
7475;SDS011;3779;49.216;8.650;2023-12-20T12:05:18;1.67;;;1.27;;
7475;SDS011;3779;49.216;8.650;2023-12-20T12:08:05;2.13;;;1.20;;
7475;SDS011;3779;49.216;8.650;2023-12-20T12:10:51;3.07;;;1.63;;
7475;SDS011;3779;49.216;8.650;2023-12-20T12:13:37;3.57;;;1.70;;
7475;SDS011;3779;49.216;8.650;2023-12-20T12:16:23;0.83;;;0.80;;
7475;SDS011;3779;49.216;8.650;2023-12-20T12:19:19;3.03;;;1.47;;
7475;SDS011;3779;49.216;8.650;2023-12-20T12:22:10;2.93;;;1.50;;
7475;SDS011;3779;49.216;8.650;2023-12-20T12:25:12;1.63;;;1.03;;
7475;SDS011;3779;49.216;8.650;2023-12-20T12:27:58;3.20;;;1.23;;
7475;SDS011;3779;49.216;8.650;2023-12-20T12:30:57;2.37;;;1.30;;
7475;SDS011;3779;49.216;8.650;2023-12-20T12:33:39;1.23;;;1.10;;
7475;SDS011;3779;49.216;8.650;2023-12-20T12:36:29;1.33;;;1.00;;
7475;SDS011;3779;49.216;8.650;2023-12-20T12:39:15;1.43;;;1.13;;
7475;SDS011;3779;49.216;8.650;2023-12-20T12:42:03;3.57;;;1.63;;
7475;SDS011;3779;49.216;8.650;2023-12-20T12:44:49;3.87;;;1.30;;
7475;SDS011;3779;49.216;8.650;2023-12-20T12:47:36;2.90;;;1.43;;
7475;SDS011;3779;49.216;8.650;2023-12-20T12:50:22;4.13;;;1.67;;
7475;SDS011;3779;49.216;8.650;2023-12-20T12:53:08;2.53;;;1.10;;
7475;SDS011;3779;49.216;8.650;2023-12-20T13:31:12;3.67;;;1.90;;
7475;SDS011;3779;49.216;8.650;2023-12-20T13:33:52;2.40;;;1.27;;
7475;SDS011;3779;49.216;8.650;2023-12-20T13:39:26;4.87;;;1.70;;
7475;SDS011;3779;49.216;8.650;2023-12-20T13:54:15;3.20;;;1.87;;
7475;SDS011;3779;49.216;8.650;2023-12-20T14:15:06;5.23;;;1.90;;
7475;SDS011;3779;49.216;8.650;2023-12-20T14:21:07;2.97;;;2.10;;
7475;SDS011;3779;49.216;8.650;2023-12-20T14:23:53;3.10;;;1.60;;
7475;SDS011;3779;49.216;8.650;2023-12-20T14:26:39;5.27;;;1.90;;
7475;SDS011;3779;49.216;8.650;2023-12-20T14:29:24;4.47;;;2.13;;
7475;SDS011;3779;49.216;8.650;2023-12-20T14:32:10;5.00;;;2.00;;
7475;SDS011;3779;49.216;8.650;2023-12-20T14:34:56;4.07;;;1.73;;
7475;SDS011;3779;49.216;8.650;2023-12-20T14:37:42;3.57;;;1.83;;
7475;SDS011;3779;49.216;8.650;2023-12-20T18:04:26;2.67;;;1.37;;
7475;SDS011;3779;49.216;8.650;2023-12-20T18:25:24;2.27;;;1.70;;
7475;SDS011;3779;49.216;8.650;2023-12-20T18:28:04;2.70;;;1.40;;
7475;SDS011;3779;49.216;8.650;2023-12-20T18:30:50;5.13;;;1.40;;
7475;SDS011;3779;49.216;8.650;2023-12-20T18:36:34;2.73;;;1.33;;
7475;SDS011;3779;49.216;8.650;2023-12-20T18:39:22;2.73;;;1.40;;
